createdAt,value
2019-02-16T00:01:49.692Z,70.87
2019-02-16T00:04:17.074Z,70.81
2019-02-16T00:06:44.503Z,70.57
2019-02-16T00:09:11.935Z,71.01
2019-02-16T00:11:39.398Z,71.02
2019-02-16T00:14:06.792Z,70.89
2019-02-16T00:16:34.190Z,70.71
2019-02-16T00:19:01.673Z,70.57
2019-02-16T00:21:29.094Z,69.91
2019-02-16T00:23:56.664Z,70.23
2019-02-16T00:26:24.117Z,70.13
2019-02-16T00:28:51.514Z,70.04
2019-02-16T00:31:18.954Z,69.86
2019-02-16T00:33:46.350Z,69.96
2019-02-16T00:36:13.688Z,70.54
2019-02-16T00:38:41.110Z,70.32
2019-02-16T00:41:08.652Z,72.27
2019-02-16T00:43:36.055Z,69.76
2019-02-16T00:46:03.488Z,70.60
2019-02-16T00:48:30.907Z,72.94
2019-02-16T00:50:58.302Z,71.21
2019-02-16T00:53:25.743Z,70.09
2019-02-16T00:55:53.265Z,70.45
2019-02-16T00:58:20.713Z,70.95
2019-02-16T01:00:48.131Z,71.58
2019-02-16T01:03:15.609Z,71.61
2019-02-16T01:05:43.044Z,71.51
2019-02-16T01:08:10.420Z,72.12
2019-02-16T01:10:37.877Z,75.19
2019-02-16T01:13:05.335Z,72.03
2019-02-16T01:15:32.728Z,72.62
2019-02-16T01:18:00.156Z,70.62
2019-02-16T01:20:27.606Z,69.71
2019-02-16T01:22:55.030Z,76.03
2019-02-16T01:25:22.571Z,70.69
2019-02-16T01:27:49.995Z,72.14
2019-02-16T01:30:17.400Z,68.42
2019-02-16T01:32:44.840Z,68.11
2019-02-16T01:35:12.276Z,69.22
2019-02-16T01:37:39.660Z,69.67
2019-02-16T01:40:09.197Z,67.97
2019-02-16T01:42:36.731Z,67.97
2019-02-16T01:45:04.818Z,67.65
2019-02-16T01:47:32.187Z,68.89
2019-02-16T01:49:59.640Z,69.41
2019-02-16T01:52:27.063Z,70.33
2019-02-16T01:54:54.432Z,71.09
2019-02-16T01:57:21.902Z,71.08
2019-02-16T01:59:49.355Z,71.83
2019-02-16T02:02:16.705Z,69.12
2019-02-16T02:04:44.127Z,67.66
2019-02-16T02:07:11.567Z,67.71
2019-02-16T02:09:38.957Z,67.40
2019-02-16T02:12:06.411Z,67.77
2019-02-16T02:14:33.881Z,68.12
2019-02-16T02:17:01.318Z,68.49
2019-02-16T02:19:28.746Z,68.30
2019-02-16T02:21:56.217Z,69.09
2019-02-16T02:24:23.711Z,73.37
2019-02-16T02:26:51.271Z,70.69
2019-02-16T02:29:18.623Z,65.63
2019-02-16T02:31:46.050Z,66.30
2019-02-16T02:34:13.461Z,66.73
2019-02-16T02:36:40.855Z,68.07
2019-02-16T02:39:08.314Z,68.50
2019-02-16T02:41:35.755Z,68.58
2019-02-16T02:44:03.154Z,69.21
2019-02-16T02:46:30.679Z,68.60
2019-02-16T02:48:58.130Z,68.63
2019-02-16T02:51:25.570Z,68.72
2019-02-16T02:53:53.023Z,69.29
2019-02-16T02:56:20.452Z,69.79
2019-02-16T02:58:48.213Z,69.74
2019-02-16T03:01:15.786Z,69.80
2019-02-16T03:03:43.172Z,70.61
2019-02-16T03:06:10.606Z,70.59
2019-02-16T03:08:38.317Z,70.42
2019-02-16T03:11:05.774Z,69.30
2019-02-16T03:13:33.217Z,68.67
2019-02-16T03:16:00.633Z,68.95
2019-02-16T03:18:28.059Z,68.26
2019-02-16T03:20:55.467Z,68.70
2019-02-16T03:23:22.893Z,68.66
2019-02-16T03:26:38.409Z,69.11
2019-02-16T03:29:39.601Z,69.68
2019-02-16T03:32:32.250Z,70.82
2019-02-16T03:35:56.832Z,70.45
2019-02-16T03:38:47.804Z,71.53
2019-02-16T03:41:15.270Z,70.64
2019-02-16T03:43:42.704Z,71.04
2019-02-16T03:46:10.149Z,72.08
2019-02-16T03:48:37.856Z,71.30
2019-02-16T03:51:05.241Z,71.30
2019-02-16T03:53:32.660Z,71.95
2019-02-16T03:56:00.100Z,71.79
2019-02-16T03:58:27.559Z,71.21
2019-02-16T04:00:54.962Z,70.66
2019-02-16T04:03:22.372Z,71.59
2019-02-16T04:05:49.726Z,71.64
2019-02-16T04:08:17.123Z,72.08
2019-02-16T04:10:44.667Z,72.42
2019-02-16T04:13:12.110Z,74.21
2019-02-16T04:15:39.473Z,75.52
2019-02-16T04:18:06.932Z,72.79
2019-02-16T04:20:34.383Z,73.23
2019-02-16T04:23:01.779Z,72.77
2019-02-16T04:25:29.263Z,74.05
2019-02-16T04:27:56.789Z,74.56
2019-02-16T04:30:24.265Z,73.53
2019-02-16T04:32:51.743Z,71.72
2019-02-16T04:35:19.211Z,71.99
2019-02-16T04:37:46.634Z,73.12
2019-02-16T04:40:14.100Z,73.29
2019-02-16T04:42:41.465Z,75.89
2019-02-16T04:45:09.004Z,74.47
2019-02-16T04:47:36.467Z,73.93
2019-02-16T04:50:04.546Z,69.18
2019-02-16T04:52:34.952Z,69.57
2019-02-16T04:55:01.339Z,70.54
2019-02-16T04:57:28.754Z,71.32
2019-02-16T04:59:56.328Z,73.39
2019-02-16T05:02:23.707Z,72.48
2019-02-16T05:04:51.131Z,73.11
2019-02-16T05:07:18.533Z,73.76
2019-02-16T05:09:45.878Z,74.20
2019-02-16T05:12:13.330Z,75.09
2019-02-16T05:14:40.775Z,75.18
2019-02-16T05:17:08.150Z,75.22
2019-02-16T05:19:35.609Z,75.61
2019-02-16T05:22:03.034Z,76.20
2019-02-16T05:24:30.456Z,76.05
2019-02-16T05:26:57.970Z,76.16
2019-02-16T05:29:25.521Z,75.86
2019-02-16T05:31:52.945Z,75.67
2019-02-16T05:34:20.402Z,76.14
2019-02-16T05:36:48.158Z,76.18
2019-02-16T05:39:15.673Z,76.31
2019-02-16T05:41:43.102Z,77.93
2019-02-16T05:44:10.621Z,75.81
2019-02-16T05:46:38.031Z,78.59
2019-02-16T05:49:05.464Z,77.59
2019-02-16T05:51:32.905Z,77.95
2019-02-16T05:54:00.297Z,82.89
2019-02-16T05:56:27.716Z,79.41
2019-02-16T05:58:55.169Z,79.31
2019-02-16T06:01:22.527Z,77.80
2019-02-16T06:03:50.024Z,77.37
2019-02-16T06:06:17.516Z,70.77
2019-02-16T06:08:45.005Z,71.04
2019-02-16T06:11:12.462Z,70.44
2019-02-16T06:13:39.907Z,70.40
2019-02-16T06:16:07.358Z,70.61
2019-02-16T06:18:34.771Z,71.47
2019-02-16T06:21:02.241Z,70.33
2019-02-16T06:23:29.760Z,69.05
2019-02-16T06:25:57.202Z,68.11
2019-02-16T06:28:24.649Z,68.60
2019-02-16T06:30:52.201Z,69.04
2019-02-16T06:33:19.719Z,68.53
2019-02-16T06:35:50.144Z,69.91
2019-02-16T06:38:17.629Z,70.57
2019-02-16T06:40:45.031Z,72.63
2019-02-16T06:43:12.519Z,68.07
2019-02-16T06:45:39.946Z,68.13
2019-02-16T06:48:07.397Z,68.04
2019-02-16T06:50:37.058Z,69.15
2019-02-16T06:53:12.581Z,69.71
2019-02-16T06:55:42.210Z,70.07
2019-02-16T06:58:09.656Z,71.77
2019-02-16T07:00:37.011Z,74.45
2019-02-16T07:03:04.480Z,70.43
2019-02-16T07:05:31.897Z,72.69
2019-02-16T07:07:59.269Z,72.70
2019-02-16T07:10:26.871Z,69.04
2019-02-16T07:12:55.478Z,68.80
2019-02-16T07:15:22.973Z,68.58
2019-02-16T07:19:52.404Z,69.69
2019-02-16T07:22:19.882Z,69.53
2019-02-16T07:24:47.466Z,69.51
2019-02-16T07:27:14.867Z,69.02
2019-02-16T07:29:42.308Z,68.66
2019-02-16T07:32:09.837Z,68.42
2019-02-16T07:34:37.237Z,68.75
2019-02-16T07:37:04.917Z,68.39
2019-02-16T07:39:32.861Z,65.69
2019-02-16T07:42:00.242Z,65.32
2019-02-16T07:44:40.236Z,65.75
2019-02-16T07:47:23.495Z,65.77
2019-02-16T07:50:16.300Z,65.03
2019-02-16T07:53:02.021Z,63.95
2019-02-16T07:55:36.668Z,61.08
2019-02-16T07:58:12.296Z,62.83
2019-02-16T08:00:57.495Z,59.72
2019-02-16T08:03:37.525Z,60.19
2019-02-16T08:06:27.236Z,64.18
2019-02-16T08:09:10.957Z,61.90
2019-02-16T08:11:44.763Z,59.13
2019-02-16T08:14:40.792Z,55.08
2019-02-16T08:18:41.426Z,51.63
2019-02-16T08:21:22.026Z,52.37
2019-02-16T08:24:18.731Z,51.18
2019-02-16T08:26:52.521Z,51.50
2019-02-16T08:29:54.783Z,50.93
2019-02-16T08:32:34.619Z,51.46
2019-02-16T08:35:21.257Z,52.32
2019-02-16T08:38:23.489Z,53.45
2019-02-16T08:41:09.069Z,50.56
2019-02-16T08:44:14.517Z,52.02
2019-02-16T08:47:04.065Z,52.41
2019-02-16T08:49:39.091Z,52.17
2019-02-16T08:52:33.988Z,53.25
2019-02-16T08:55:25.918Z,52.62
2019-02-16T08:58:11.616Z,52.33
2019-02-16T09:01:04.256Z,52.45
2019-02-16T09:03:43.852Z,53.25
2019-02-16T09:06:26.801Z,49.60
2019-02-16T09:09:24.428Z,50.17
2019-02-16T09:12:13.978Z,50.55
2019-02-16T09:14:50.587Z,50.16
2019-02-16T09:17:46.273Z,47.59
2019-02-16T09:20:26.003Z,48.72
2019-02-16T09:23:18.703Z,46.70
2019-02-16T09:26:14.907Z,46.85
2019-02-16T09:29:00.994Z,46.76
2019-02-16T09:31:46.536Z,47.49
2019-02-16T09:34:39.417Z,47.90
2019-02-16T09:37:40.991Z,47.47
2019-02-16T09:40:33.196Z,47.83
2019-02-16T09:43:14.595Z,48.51
2019-02-16T09:45:51.667Z,47.17
2019-02-16T09:48:26.932Z,47.71
2019-02-16T09:51:12.488Z,47.96
2019-02-16T09:53:49.879Z,47.55
2019-02-16T09:56:45.699Z,47.77
2019-02-16T09:59:29.749Z,48.64
2019-02-16T10:02:19.583Z,47.57
2019-02-16T10:05:04.903Z,48.66
2019-02-16T10:07:57.409Z,45.22
2019-02-16T10:10:33.437Z,45.42
2019-02-16T10:13:18.995Z,44.68
2019-02-16T10:16:19.546Z,46.23
2019-02-16T10:19:12.646Z,44.62
2019-02-16T10:22:14.685Z,46.87
2019-02-16T10:24:58.325Z,44.31
2019-02-16T10:27:57.535Z,45.26
2019-02-16T10:30:43.167Z,44.69
2019-02-16T10:33:32.851Z,43.05
2019-02-16T10:36:19.800Z,44.28
2019-02-16T10:39:04.553Z,44.27
2019-02-16T10:41:43.764Z,45.07
2019-02-16T10:44:32.201Z,45.44
2019-02-16T10:47:13.022Z,44.42
2019-02-16T10:50:11.942Z,43.60
2019-02-16T10:52:54.194Z,44.93
2019-02-16T10:55:49.913Z,45.27
2019-02-16T10:58:39.795Z,45.67
2019-02-16T11:01:35.969Z,44.97
2019-02-16T11:04:16.178Z,45.65
2019-02-16T11:07:01.804Z,45.10
2019-02-16T11:09:57.677Z,44.86
2019-02-16T11:12:42.027Z,44.72
2019-02-16T11:15:31.627Z,44.24
2019-02-16T11:18:17.165Z,44.74
2019-02-16T11:21:14.174Z,44.22
2019-02-16T11:23:59.728Z,44.46
2019-02-16T11:26:45.390Z,44.44
2019-02-16T11:29:28.224Z,43.90
2019-02-16T11:32:13.772Z,43.92
2019-02-16T11:34:49.274Z,43.03
2019-02-16T11:37:38.779Z,42.97
2019-02-16T11:40:38.006Z,42.77
2019-02-16T11:43:28.113Z,43.29
2019-02-16T11:46:15.113Z,43.29
2019-02-16T11:48:59.494Z,42.16
2019-02-16T11:51:58.126Z,43.90
2019-02-16T11:54:48.047Z,44.65
2019-02-16T11:57:28.726Z,44.76
2019-02-16T12:00:24.696Z,44.61
2019-02-16T12:03:06.559Z,44.85
2019-02-16T12:05:58.853Z,44.04
2019-02-16T12:08:39.251Z,44.21
2019-02-16T12:11:35.432Z,44.24
2019-02-16T12:14:37.733Z,44.12
2019-02-16T12:17:40.032Z,44.74
2019-02-16T12:20:33.106Z,43.88
2019-02-16T12:23:30.973Z,43.81
2019-02-16T12:26:16.511Z,43.84
2019-02-16T12:29:02.442Z,43.71
2019-02-16T12:31:37.917Z,44.06
2019-02-16T12:34:13.226Z,43.57
2019-02-16T12:36:58.906Z,43.32
2019-02-16T12:39:57.998Z,43.41
2019-02-16T12:42:38.436Z,43.39
2019-02-16T12:45:26.084Z,42.29
2019-02-16T12:48:11.856Z,41.27
2019-02-16T12:50:52.022Z,41.27
2019-02-16T12:53:37.428Z,41.87
2019-02-16T12:56:20.394Z,42.25
2019-02-16T12:58:57.726Z,42.03
2019-02-16T13:01:50.948Z,42.45
2019-02-16T13:04:44.199Z,42.31
2019-02-16T13:07:17.357Z,41.00
2019-02-16T13:09:51.060Z,40.88
2019-02-16T13:12:27.107Z,41.97
2019-02-16T13:15:12.843Z,40.59
2019-02-16T13:18:04.602Z,41.38
2019-02-16T13:21:10.214Z,41.59
2019-02-16T13:23:44.707Z,41.48
2019-02-16T13:26:32.532Z,41.96
2019-02-16T13:29:17.449Z,41.50
2019-02-16T13:32:04.755Z,41.87
2019-02-16T13:34:46.113Z,42.15
2019-02-16T13:37:29.325Z,42.02
2019-02-16T13:40:19.294Z,42.19
2019-02-16T13:43:07.347Z,42.50
2019-02-16T13:45:54.324Z,41.71
2019-02-16T13:48:35.448Z,40.59
2019-02-16T13:51:28.065Z,39.91
2019-02-16T13:54:15.236Z,39.55
2019-02-16T13:56:58.765Z,39.75
2019-02-16T13:59:48.693Z,39.41
2019-02-16T14:02:35.754Z,39.24
2019-02-16T14:05:18.327Z,39.10
2019-02-16T14:07:59.835Z,38.65
2019-02-16T14:10:35.174Z,39.16
2019-02-16T14:13:12.672Z,38.87
2019-02-16T14:15:47.108Z,38.79
2019-02-16T14:18:14.572Z,38.59
2019-02-16T14:20:42.053Z,37.67
2019-02-16T14:23:09.564Z,37.79
2019-02-16T14:25:45.627Z,37.15
2019-02-16T14:28:12.541Z,36.72
2019-02-16T14:30:39.968Z,36.75
2019-02-16T14:33:07.400Z,36.75
2019-02-16T14:35:34.859Z,36.68
2019-02-16T14:38:20.360Z,36.53
2019-02-16T14:40:47.831Z,37.46
2019-02-16T14:43:15.299Z,37.41
2019-02-16T14:45:42.698Z,37.48
2019-02-16T14:48:10.168Z,38.08
2019-02-16T14:50:37.628Z,38.65
2019-02-16T14:53:05.113Z,38.79
2019-02-16T14:55:32.497Z,39.63
2019-02-16T14:57:59.982Z,39.79
2019-02-16T15:00:27.463Z,39.92
2019-02-16T15:02:54.898Z,40.46
2019-02-16T15:05:22.289Z,40.10
2019-02-16T15:07:49.728Z,40.28
2019-02-16T15:10:17.226Z,40.65
2019-02-16T15:12:44.605Z,39.66
2019-02-16T15:15:12.136Z,39.40
2019-02-16T15:17:39.625Z,40.36
2019-02-16T15:20:08.599Z,40.03
2019-02-16T15:22:36.024Z,40.83
2019-02-16T15:25:04.017Z,41.15
2019-02-16T15:27:31.460Z,41.33
2019-02-16T15:29:58.914Z,41.78
2019-02-16T15:32:26.360Z,42.20
2019-02-16T15:34:53.798Z,41.78
2019-02-16T15:37:21.269Z,41.98
2019-02-16T15:39:48.796Z,42.43
2019-02-16T15:42:16.283Z,43.74
2019-02-16T15:44:43.736Z,45.77
2019-02-16T15:47:11.207Z,46.94
2019-02-16T15:49:38.556Z,47.65
2019-02-16T15:52:05.992Z,48.53
2019-02-16T15:54:33.472Z,49.21
2019-02-16T15:57:00.846Z,49.60
2019-02-16T15:59:35.048Z,49.92
2019-02-16T16:01:57.777Z,50.54
2019-02-16T16:04:25.188Z,50.65
2019-02-16T16:06:54.928Z,50.67
2019-02-16T16:09:44.914Z,50.93
2019-02-16T16:12:37.972Z,51.32
2019-02-16T16:15:15.883Z,51.81
2019-02-16T16:17:59.774Z,52.22
2019-02-16T16:20:44.215Z,52.32
2019-02-16T16:23:43.476Z,52.30
2019-02-16T16:26:28.920Z,52.27
2019-02-16T16:29:14.352Z,52.20
2019-02-16T16:31:53.396Z,52.15
2019-02-16T16:34:52.609Z,52.15
2019-02-16T16:37:31.392Z,51.83
2019-02-16T16:40:30.098Z,51.87
2019-02-16T16:43:29.445Z,52.70
2019-02-16T16:46:15.409Z,52.27
2019-02-16T16:48:56.681Z,52.47
2019-02-16T16:51:52.685Z,52.56
2019-02-16T16:54:40.144Z,52.52
2019-02-16T16:57:36.195Z,53.41
2019-02-16T17:00:39.016Z,55.14
2019-02-16T17:03:28.968Z,54.57
2019-02-16T17:06:05.298Z,52.06
2019-02-16T17:08:46.257Z,53.17
2019-02-16T17:11:42.028Z,53.30
2019-02-16T17:14:22.230Z,52.88
2019-02-16T17:17:01.877Z,51.38
2019-02-16T17:19:51.389Z,51.72
2019-02-16T17:22:40.212Z,52.23
2019-02-16T17:25:29.832Z,53.63
2019-02-16T17:28:04.016Z,53.14
2019-02-16T17:30:53.861Z,54.17
2019-02-16T17:33:27.097Z,55.57
2019-02-16T17:36:20.088Z,54.35
2019-02-16T17:39:01.931Z,54.95
2019-02-16T17:41:48.871Z,53.81
2019-02-16T17:44:28.513Z,54.29
2019-02-16T17:47:18.306Z,54.44
2019-02-16T17:50:05.404Z,54.97
2019-02-16T17:53:10.736Z,54.88
2019-02-16T17:56:00.696Z,55.09
2019-02-16T17:58:39.119Z,55.57
2019-02-16T18:01:26.068Z,56.04
2019-02-16T18:04:11.693Z,56.23
2019-02-16T18:07:10.637Z,56.32
2019-02-16T18:09:56.144Z,56.80
2019-02-16T18:12:42.035Z,57.19
2019-02-16T18:15:28.967Z,57.55
2019-02-16T18:18:27.977Z,58.65
2019-02-16T18:21:18.213Z,57.43
2019-02-16T18:24:11.005Z,57.87
2019-02-16T18:26:57.690Z,57.64
2019-02-16T18:29:43.378Z,58.89
2019-02-16T18:32:36.349Z,58.14
2019-02-16T18:35:24.004Z,57.27
2019-02-16T18:38:09.543Z,57.65
2019-02-16T18:40:59.262Z,58.23
2019-02-16T18:43:41.135Z,58.19
2019-02-16T18:46:26.919Z,58.91
2019-02-16T18:49:22.758Z,58.46
2019-02-16T18:52:10.384Z,59.50
2019-02-16T18:55:10.309Z,58.58
2019-02-16T18:57:55.816Z,58.38
2019-02-16T19:00:46.202Z,58.18
2019-02-16T19:03:27.436Z,58.50
2019-02-16T19:06:13.675Z,59.16
2019-02-16T19:08:49.150Z,59.19
2019-02-16T19:11:25.114Z,59.51
2019-02-16T19:14:12.111Z,59.46
2019-02-16T19:17:02.081Z,60.06
2019-02-16T19:19:39.518Z,59.89
2019-02-16T19:22:32.546Z,59.80
2019-02-16T19:25:25.284Z,59.26
2019-02-16T19:28:12.339Z,60.70
2019-02-16T19:30:55.784Z,59.77
2019-02-16T19:34:00.990Z,61.56
2019-02-16T19:36:35.565Z,61.22
2019-02-16T19:39:31.837Z,61.72
2019-02-16T19:42:14.253Z,62.22
2019-02-16T19:45:04.226Z,62.54
2019-02-16T19:47:46.390Z,62.68
2019-02-16T19:50:31.071Z,62.62
2019-02-16T19:53:18.152Z,62.17
2019-02-16T19:56:05.860Z,62.02
2019-02-16T19:58:49.730Z,61.75
2019-02-16T20:01:35.339Z,60.88
2019-02-16T20:04:22.590Z,61.57
2019-02-16T20:07:09.486Z,62.22
2019-02-16T20:09:54.772Z,64.15
2019-02-16T20:12:46.126Z,62.96
2019-02-16T20:15:32.219Z,60.66
2019-02-16T20:18:13.792Z,60.73
2019-02-16T20:21:01.342Z,61.54
2019-02-16T20:23:51.006Z,61.00
2019-02-16T20:26:36.845Z,62.02
2019-02-16T20:29:31.402Z,61.34
2019-02-16T20:32:24.069Z,62.67
2019-02-16T20:35:11.027Z,61.84
2019-02-16T20:37:56.979Z,63.79
2019-02-16T20:40:38.026Z,62.32
2019-02-16T20:43:33.949Z,63.68
2019-02-16T20:46:14.832Z,64.60
2019-02-16T20:49:10.608Z,66.49
2019-02-16T20:52:12.704Z,64.88
2019-02-16T20:54:48.074Z,63.75
2019-02-16T20:57:35.213Z,64.21
2019-02-16T21:00:22.381Z,65.04
2019-02-16T21:02:59.810Z,63.86
2019-02-16T21:05:45.432Z,67.39
2019-02-16T21:08:35.178Z,63.74
2019-02-16T21:11:16.955Z,62.90
2019-02-16T21:14:16.014Z,63.30
2019-02-16T21:17:15.483Z,63.98
2019-02-16T21:19:59.315Z,67.02
2019-02-16T21:22:36.885Z,65.85
2019-02-16T21:25:14.282Z,65.83
2019-02-16T21:28:01.232Z,65.92
2019-02-16T21:30:57.447Z,65.58
2019-02-16T21:34:00.759Z,66.57
2019-02-16T21:36:36.276Z,67.19
2019-02-16T21:39:30.575Z,67.98
2019-02-16T21:42:12.765Z,68.43
2019-02-16T21:44:46.980Z,67.01
2019-02-16T21:47:32.838Z,68.02
2019-02-16T21:50:10.785Z,66.93
2019-02-16T21:53:00.472Z,66.25
2019-02-16T21:55:41.628Z,68.71
2019-02-16T21:58:34.492Z,68.17
2019-02-16T22:01:22.413Z,67.42
2019-02-16T22:04:16.207Z,66.44
2019-02-16T22:07:08.822Z,66.38
2019-02-16T22:09:55.787Z,68.62
2019-02-16T22:12:31.740Z,71.69
2019-02-16T22:14:59.208Z,66.85
2019-02-16T22:17:26.736Z,67.10
2019-02-16T22:19:54.200Z,68.87
2019-02-16T22:22:21.666Z,72.99
2019-02-16T22:24:49.254Z,67.14
2019-02-16T22:27:16.693Z,69.82
2019-02-16T22:29:44.207Z,68.45
2019-02-16T22:32:11.754Z,72.13
2019-02-16T22:34:39.163Z,69.70
2019-02-16T22:37:06.795Z,69.95
2019-02-16T22:39:34.364Z,66.04
2019-02-16T22:42:01.747Z,66.50
2019-02-16T22:44:29.200Z,66.43
2019-02-16T22:46:56.684Z,67.44
2019-02-16T22:49:24.125Z,68.25
2019-02-16T22:51:51.649Z,68.18
2019-02-16T22:54:19.120Z,69.44
2019-02-16T22:56:46.546Z,70.01
2019-02-16T22:59:13.963Z,71.06
2019-02-16T23:01:42.102Z,72.08
2019-02-16T23:04:09.656Z,72.91
2019-02-16T23:06:37.278Z,73.29
2019-02-16T23:09:11.350Z,73.92
2019-02-16T23:11:38.991Z,74.63
2019-02-16T23:14:06.429Z,74.19
2019-02-16T23:16:33.970Z,74.66
2019-02-16T23:19:01.426Z,75.69
2019-02-16T23:21:28.928Z,76.10
2019-02-16T23:23:56.760Z,75.59
2019-02-16T23:26:24.329Z,76.14
2019-02-16T23:28:51.814Z,76.62
2019-02-16T23:31:20.137Z,77.21
2019-02-16T23:33:47.554Z,77.80
2019-02-16T23:36:14.968Z,78.65
2019-02-16T23:38:42.346Z,78.97
2019-02-16T23:41:09.798Z,77.52
2019-02-16T23:43:37.208Z,76.80
2019-02-16T23:46:04.663Z,76.85
2019-02-16T23:48:32.667Z,77.06
2019-02-16T23:51:00.061Z,77.74
2019-02-16T23:53:27.637Z,78.08
2019-02-16T23:55:55.084Z,78.69
2019-02-16T23:58:22.567Z,78.60
